sensor_id;sensor_type;location;lat;lon;timestamp;P1;durP1;ratioP1;P2;durP2;ratioP2
3999;SDS011;2014;53.604;10.112;2023-02-28T00:00:29;5.00;;;3.10;;
3999;SDS011;2014;53.604;10.112;2023-02-28T00:03:00;8.20;;;2.30;;
3999;SDS011;2014;53.604;10.112;2023-02-28T00:05:30;5.30;;;2.20;;
3999;SDS011;2014;53.604;10.112;2023-02-28T00:07:59;5.63;;;2.40;;
3999;SDS011;2014;53.604;10.112;2023-02-28T00:10:30;3.93;;;2.67;;
3999;SDS011;2014;53.604;10.112;2023-02-28T00:13:00;2.20;;;2.10;;
3999;SDS011;2014;53.604;10.112;2023-02-28T00:15:32;2.63;;;2.40;;
3999;SDS011;2014;53.604;10.112;2023-02-28T00:18:01;2.77;;;2.57;;
3999;SDS011;2014;53.604;10.112;2023-02-28T00:20:30;2.50;;;2.30;;
3999;SDS011;2014;53.604;10.112;2023-02-28T00:22:58;3.55;;;3.25;;
3999;SDS011;2014;53.604;10.112;2023-02-28T00:25:27;6.33;;;2.03;;
3999;SDS011;2014;53.604;10.112;2023-02-28T00:27:57;3.97;;;3.60;;
3999;SDS011;2014;53.604;10.112;2023-02-28T00:30:35;3.10;;;2.70;;
3999;SDS011;2014;53.604;10.112;2023-02-28T00:33:05;2.50;;;2.07;;
3999;SDS011;2014;53.604;10.112;2023-02-28T00:35:36;10.50;;;3.10;;
3999;SDS011;2014;53.604;10.112;2023-02-28T00:38:07;3.20;;;2.90;;
3999;SDS011;2014;53.604;10.112;2023-02-28T00:40:38;4.97;;;2.70;;
3999;SDS011;2014;53.604;10.112;2023-02-28T00:43:07;3.30;;;3.00;;
3999;SDS011;2014;53.604;10.112;2023-02-28T00:45:36;3.03;;;2.83;;
3999;SDS011;2014;53.604;10.112;2023-02-28T00:48:05;3.37;;;2.60;;
3999;SDS011;2014;53.604;10.112;2023-02-28T00:50:37;3.30;;;2.63;;
3999;SDS011;2014;53.604;10.112;2023-02-28T00:53:07;4.50;;;3.27;;
3999;SDS011;2014;53.604;10.112;2023-02-28T00:55:35;2.97;;;2.70;;
3999;SDS011;2014;53.604;10.112;2023-02-28T00:58:04;6.40;;;4.00;;
3999;SDS011;2014;53.604;10.112;2023-02-28T01:00:38;3.70;;;3.40;;
3999;SDS011;2014;53.604;10.112;2023-02-28T01:03:14;3.53;;;2.80;;
3999;SDS011;2014;53.604;10.112;2023-02-28T01:05:46;3.17;;;2.97;;
3999;SDS011;2014;53.604;10.112;2023-02-28T01:08:23;4.03;;;3.67;;
3999;SDS011;2014;53.604;10.112;2023-02-28T01:10:57;5.73;;;3.30;;
3999;SDS011;2014;53.604;10.112;2023-02-28T01:13:28;5.47;;;3.90;;
3999;SDS011;2014;53.604;10.112;2023-02-28T01:16:01;10.03;;;5.70;;
3999;SDS011;2014;53.604;10.112;2023-02-28T01:18:32;4.90;;;4.30;;
3999;SDS011;2014;53.604;10.112;2023-02-28T01:21:10;4.23;;;3.90;;
3999;SDS011;2014;53.604;10.112;2023-02-28T01:23:44;3.37;;;2.87;;
3999;SDS011;2014;53.604;10.112;2023-02-28T01:26:18;7.40;;;2.87;;
3999;SDS011;2014;53.604;10.112;2023-02-28T01:28:53;2.67;;;2.47;;
3999;SDS011;2014;53.604;10.112;2023-02-28T01:31:30;2.93;;;2.53;;
3999;SDS011;2014;53.604;10.112;2023-02-28T01:34:09;5.93;;;2.80;;
3999;SDS011;2014;53.604;10.112;2023-02-28T01:36:46;4.30;;;2.40;;
3999;SDS011;2014;53.604;10.112;2023-02-28T01:39:20;5.97;;;3.27;;
3999;SDS011;2014;53.604;10.112;2023-02-28T01:41:54;4.03;;;3.17;;
3999;SDS011;2014;53.604;10.112;2023-02-28T01:47:23;3.30;;;2.63;;
3999;SDS011;2014;53.604;10.112;2023-02-28T01:49:59;5.27;;;2.73;;
3999;SDS011;2014;53.604;10.112;2023-02-28T01:52:34;2.60;;;2.50;;
3999;SDS011;2014;53.604;10.112;2023-02-28T01:55:10;2.70;;;2.50;;
3999;SDS011;2014;53.604;10.112;2023-02-28T01:57:45;3.33;;;2.47;;
3999;SDS011;2014;53.604;10.112;2023-02-28T02:00:27;2.23;;;2.00;;
3999;SDS011;2014;53.604;10.112;2023-02-28T02:03:13;3.63;;;3.43;;
3999;SDS011;2014;53.604;10.112;2023-02-28T02:05:50;2.77;;;2.50;;
3999;SDS011;2014;53.604;10.112;2023-02-28T02:08:26;8.50;;;3.20;;
3999;SDS011;2014;53.604;10.112;2023-02-28T02:11:02;2.33;;;2.23;;
3999;SDS011;2014;53.604;10.112;2023-02-28T02:13:53;2.97;;;2.57;;
3999;SDS011;2014;53.604;10.112;2023-02-28T02:16:34;5.03;;;3.20;;
3999;SDS011;2014;53.604;10.112;2023-02-28T02:19:15;6.30;;;2.07;;
3999;SDS011;2014;53.604;10.112;2023-02-28T02:22:03;3.07;;;2.60;;
3999;SDS011;2014;53.604;10.112;2023-02-28T02:24:48;5.50;;;2.90;;
3999;SDS011;2014;53.604;10.112;2023-02-28T02:30:26;2.70;;;2.50;;
3999;SDS011;2014;53.604;10.112;2023-02-28T02:35:56;4.13;;;2.60;;
3999;SDS011;2014;53.604;10.112;2023-02-28T02:38:32;2.53;;;2.30;;
3999;SDS011;2014;53.604;10.112;2023-02-28T02:41:12;3.53;;;2.07;;
3999;SDS011;2014;53.604;10.112;2023-02-28T02:43:48;2.17;;;2.07;;
3999;SDS011;2014;53.604;10.112;2023-02-28T02:46:26;4.27;;;2.40;;
3999;SDS011;2014;53.604;10.112;2023-02-28T02:49:11;2.10;;;1.87;;
3999;SDS011;2014;53.604;10.112;2023-02-28T02:51:53;2.43;;;2.23;;
3999;SDS011;2014;53.604;10.112;2023-02-28T02:54:28;4.27;;;2.50;;
3999;SDS011;2014;53.604;10.112;2023-02-28T02:57:03;2.17;;;2.00;;
3999;SDS011;2014;53.604;10.112;2023-02-28T02:59:41;2.70;;;2.50;;
3999;SDS011;2014;53.604;10.112;2023-02-28T03:02:20;2.50;;;2.40;;
3999;SDS011;2014;53.604;10.112;2023-02-28T03:05:04;3.10;;;2.90;;
3999;SDS011;2014;53.604;10.112;2023-02-28T03:07:45;1.90;;;1.80;;
3999;SDS011;2014;53.604;10.112;2023-02-28T03:10:30;4.10;;;2.77;;
3999;SDS011;2014;53.604;10.112;2023-02-28T03:13:11;2.33;;;2.23;;
3999;SDS011;2014;53.604;10.112;2023-02-28T03:15:50;2.93;;;2.70;;
3999;SDS011;2014;53.604;10.112;2023-02-28T03:18:40;2.93;;;2.60;;
3999;SDS011;2014;53.604;10.112;2023-02-28T03:21:20;2.20;;;2.00;;
3999;SDS011;2014;53.604;10.112;2023-02-28T03:24:01;2.27;;;2.07;;
3999;SDS011;2014;53.604;10.112;2023-02-28T03:26:38;3.00;;;2.70;;
3999;SDS011;2014;53.604;10.112;2023-02-28T03:29:13;3.50;;;2.27;;
3999;SDS011;2014;53.604;10.112;2023-02-28T03:31:52;2.80;;;2.60;;
3999;SDS011;2014;53.604;10.112;2023-02-28T03:34:26;5.13;;;2.53;;
3999;SDS011;2014;53.604;10.112;2023-02-28T03:37:07;6.30;;;2.70;;
3999;SDS011;2014;53.604;10.112;2023-02-28T03:39:44;7.03;;;2.37;;
3999;SDS011;2014;53.604;10.112;2023-02-28T03:42:21;4.50;;;2.20;;
3999;SDS011;2014;53.604;10.112;2023-02-28T03:45:00;2.20;;;2.10;;
3999;SDS011;2014;53.604;10.112;2023-02-28T03:47:36;4.70;;;2.40;;
3999;SDS011;2014;53.604;10.112;2023-02-28T03:50:24;2.30;;;2.10;;
3999;SDS011;2014;53.604;10.112;2023-02-28T03:53:04;4.90;;;2.20;;
3999;SDS011;2014;53.604;10.112;2023-02-28T03:55:45;8.40;;;3.30;;
3999;SDS011;2014;53.604;10.112;2023-02-28T03:58:22;3.30;;;3.00;;
3999;SDS011;2014;53.604;10.112;2023-02-28T04:01:03;2.83;;;2.10;;
3999;SDS011;2014;53.604;10.112;2023-02-28T04:03:42;3.70;;;2.40;;
3999;SDS011;2014;53.604;10.112;2023-02-28T04:06:21;2.53;;;2.33;;
3999;SDS011;2014;53.604;10.112;2023-02-28T04:09:05;3.83;;;2.57;;
3999;SDS011;2014;53.604;10.112;2023-02-28T04:11:44;2.20;;;2.10;;
3999;SDS011;2014;53.604;10.112;2023-02-28T04:14:19;3.57;;;2.50;;
3999;SDS011;2014;53.604;10.112;2023-02-28T04:17:01;3.10;;;2.40;;
3999;SDS011;2014;53.604;10.112;2023-02-28T04:19:39;9.10;;;2.77;;
3999;SDS011;2014;53.604;10.112;2023-02-28T04:22:19;6.50;;;2.70;;
3999;SDS011;2014;53.604;10.112;2023-02-28T04:24:56;2.70;;;2.50;;
3999;SDS011;2014;53.604;10.112;2023-02-28T04:27:37;2.60;;;2.40;;
3999;SDS011;2014;53.604;10.112;2023-02-28T04:30:15;2.33;;;2.13;;
3999;SDS011;2014;53.604;10.112;2023-02-28T04:32:48;1.93;;;1.83;;
3999;SDS011;2014;53.604;10.112;2023-02-28T04:35:24;2.03;;;1.93;;
3999;SDS011;2014;53.604;10.112;2023-02-28T04:37:59;2.47;;;2.37;;
3999;SDS011;2014;53.604;10.112;2023-02-28T04:40:32;4.60;;;2.60;;
3999;SDS011;2014;53.604;10.112;2023-02-28T04:45:56;4.03;;;2.27;;
3999;SDS011;2014;53.604;10.112;2023-02-28T04:48:41;4.17;;;2.07;;
3999;SDS011;2014;53.604;10.112;2023-02-28T04:51:23;1.50;;;1.50;;
3999;SDS011;2014;53.604;10.112;2023-02-28T04:53:56;5.27;;;2.30;;
3999;SDS011;2014;53.604;10.112;2023-02-28T04:56:30;4.20;;;2.37;;
3999;SDS011;2014;53.604;10.112;2023-02-28T04:59:04;6.83;;;2.53;;
3999;SDS011;2014;53.604;10.112;2023-02-28T05:01:52;3.33;;;2.40;;
3999;SDS011;2014;53.604;10.112;2023-02-28T05:04:28;3.13;;;2.83;;
3999;SDS011;2014;53.604;10.112;2023-02-28T05:07:05;2.90;;;2.70;;
3999;SDS011;2014;53.604;10.112;2023-02-28T05:09:38;2.47;;;2.27;;
3999;SDS011;2014;53.604;10.112;2023-02-28T05:12:15;6.43;;;2.40;;
3999;SDS011;2014;53.604;10.112;2023-02-28T05:14:49;3.70;;;1.67;;
3999;SDS011;2014;53.604;10.112;2023-02-28T05:17:24;5.70;;;3.03;;
3999;SDS011;2014;53.604;10.112;2023-02-28T05:19:58;2.23;;;2.13;;
3999;SDS011;2014;53.604;10.112;2023-02-28T05:22:32;4.47;;;3.10;;
3999;SDS011;2014;53.604;10.112;2023-02-28T05:25:04;2.87;;;2.50;;
3999;SDS011;2014;53.604;10.112;2023-02-28T05:27:37;2.83;;;2.63;;
3999;SDS011;2014;53.604;10.112;2023-02-28T05:30:11;2.80;;;2.60;;
3999;SDS011;2014;53.604;10.112;2023-02-28T05:35:41;3.63;;;3.10;;
3999;SDS011;2014;53.604;10.112;2023-02-28T05:38:15;3.63;;;3.10;;
3999;SDS011;2014;53.604;10.112;2023-02-28T05:40:48;2.60;;;2.50;;
3999;SDS011;2014;53.604;10.112;2023-02-28T05:43:21;2.73;;;2.53;;
3999;SDS011;2014;53.604;10.112;2023-02-28T05:45:59;3.30;;;3.10;;
3999;SDS011;2014;53.604;10.112;2023-02-28T05:48:31;3.77;;;3.53;;
3999;SDS011;2014;53.604;10.112;2023-02-28T05:51:05;3.40;;;3.20;;
3999;SDS011;2014;53.604;10.112;2023-02-28T05:53:37;4.23;;;2.50;;
3999;SDS011;2014;53.604;10.112;2023-02-28T05:56:06;3.37;;;2.43;;
3999;SDS011;2014;53.604;10.112;2023-02-28T05:58:39;3.00;;;2.73;;
3999;SDS011;2014;53.604;10.112;2023-02-28T06:03:59;6.23;;;2.83;;
3999;SDS011;2014;53.604;10.112;2023-02-28T06:06:35;3.50;;;3.20;;
3999;SDS011;2014;53.604;10.112;2023-02-28T06:09:06;2.97;;;2.70;;
3999;SDS011;2014;53.604;10.112;2023-02-28T06:11:43;3.47;;;3.17;;
3999;SDS011;2014;53.604;10.112;2023-02-28T06:14:19;3.10;;;2.90;;
3999;SDS011;2014;53.604;10.112;2023-02-28T06:17:04;8.33;;;3.33;;
3999;SDS011;2014;53.604;10.112;2023-02-28T06:19:40;2.87;;;2.57;;
3999;SDS011;2014;53.604;10.112;2023-02-28T06:22:18;3.67;;;2.57;;
3999;SDS011;2014;53.604;10.112;2023-02-28T06:25:06;2.73;;;2.53;;
3999;SDS011;2014;53.604;10.112;2023-02-28T06:27:42;3.13;;;2.67;;
3999;SDS011;2014;53.604;10.112;2023-02-28T06:30:16;3.90;;;2.53;;
3999;SDS011;2014;53.604;10.112;2023-02-28T06:32:54;5.70;;;2.80;;
3999;SDS011;2014;53.604;10.112;2023-02-28T06:35:33;5.60;;;3.60;;
3999;SDS011;2014;53.604;10.112;2023-02-28T06:38:09;2.83;;;2.73;;
3999;SDS011;2014;53.604;10.112;2023-02-28T06:40:41;3.63;;;2.67;;
3999;SDS011;2014;53.604;10.112;2023-02-28T06:43:16;4.10;;;3.67;;
3999;SDS011;2014;53.604;10.112;2023-02-28T06:45:45;3.63;;;3.37;;
3999;SDS011;2014;53.604;10.112;2023-02-28T06:48:14;3.90;;;3.60;;
3999;SDS011;2014;53.604;10.112;2023-02-28T06:50:50;3.80;;;3.43;;
3999;SDS011;2014;53.604;10.112;2023-02-28T06:53:26;4.90;;;4.50;;
3999;SDS011;2014;53.604;10.112;2023-02-28T06:55:57;3.83;;;3.43;;
3999;SDS011;2014;53.604;10.112;2023-02-28T06:58:30;3.17;;;2.90;;
3999;SDS011;2014;53.604;10.112;2023-02-28T07:01:08;3.90;;;3.50;;
3999;SDS011;2014;53.604;10.112;2023-02-28T07:03:45;3.23;;;2.97;;
3999;SDS011;2014;53.604;10.112;2023-02-28T07:06:19;4.10;;;2.70;;
3999;SDS011;2014;53.604;10.112;2023-02-28T07:08:57;4.13;;;3.60;;
3999;SDS011;2014;53.604;10.112;2023-02-28T07:11:31;3.30;;;3.03;;
3999;SDS011;2014;53.604;10.112;2023-02-28T07:14:04;4.50;;;3.17;;
3999;SDS011;2014;53.604;10.112;2023-02-28T07:16:35;3.50;;;3.27;;
3999;SDS011;2014;53.604;10.112;2023-02-28T07:19:09;3.80;;;3.50;;
3999;SDS011;2014;53.604;10.112;2023-02-28T07:21:41;5.63;;;3.50;;
3999;SDS011;2014;53.604;10.112;2023-02-28T07:24:18;6.47;;;3.73;;
3999;SDS011;2014;53.604;10.112;2023-02-28T07:27:10;5.60;;;4.00;;
3999;SDS011;2014;53.604;10.112;2023-02-28T07:29:55;7.33;;;4.00;;
3999;SDS011;2014;53.604;10.112;2023-02-28T07:32:38;5.23;;;2.50;;
3999;SDS011;2014;53.604;10.112;2023-02-28T07:35:13;5.57;;;3.30;;
3999;SDS011;2014;53.604;10.112;2023-02-28T07:37:48;2.83;;;2.60;;
3999;SDS011;2014;53.604;10.112;2023-02-28T07:43:19;6.70;;;3.07;;
3999;SDS011;2014;53.604;10.112;2023-02-28T07:45:57;4.57;;;2.93;;
3999;SDS011;2014;53.604;10.112;2023-02-28T07:48:35;2.50;;;2.33;;
3999;SDS011;2014;53.604;10.112;2023-02-28T07:51:16;3.80;;;3.60;;
3999;SDS011;2014;53.604;10.112;2023-02-28T07:53:50;3.63;;;3.27;;
3999;SDS011;2014;53.604;10.112;2023-02-28T07:56:26;45.20;;;10.23;;
3999;SDS011;2014;53.604;10.112;2023-02-28T07:59:09;28.87;;;7.83;;
3999;SDS011;2014;53.604;10.112;2023-02-28T08:01:49;56.60;;;7.33;;
3999;SDS011;2014;53.604;10.112;2023-02-28T08:04:32;34.60;;;5.73;;
3999;SDS011;2014;53.604;10.112;2023-02-28T08:07:06;5.13;;;4.30;;
3999;SDS011;2014;53.604;10.112;2023-02-28T08:09:46;23.87;;;4.60;;
3999;SDS011;2014;53.604;10.112;2023-02-28T08:12:25;7.63;;;3.37;;
3999;SDS011;2014;53.604;10.112;2023-02-28T08:15:01;8.83;;;3.70;;
3999;SDS011;2014;53.604;10.112;2023-02-28T08:17:46;5.93;;;3.83;;
3999;SDS011;2014;53.604;10.112;2023-02-28T08:20:21;20.80;;;4.50;;
3999;SDS011;2014;53.604;10.112;2023-02-28T08:22:55;16.67;;;4.70;;
3999;SDS011;2014;53.604;10.112;2023-02-28T08:25:29;5.70;;;3.93;;
3999;SDS011;2014;53.604;10.112;2023-02-28T08:28:11;3.40;;;3.30;;
3999;SDS011;2014;53.604;10.112;2023-02-28T08:30:50;6.13;;;3.53;;
3999;SDS011;2014;53.604;10.112;2023-02-28T08:33:27;4.73;;;3.70;;
3999;SDS011;2014;53.604;10.112;2023-02-28T08:36:06;4.37;;;3.97;;
3999;SDS011;2014;53.604;10.112;2023-02-28T08:38:41;33.33;;;5.33;;
3999;SDS011;2014;53.604;10.112;2023-02-28T08:41:16;37.37;;;4.93;;
3999;SDS011;2014;53.604;10.112;2023-02-28T08:43:49;9.90;;;4.20;;
3999;SDS011;2014;53.604;10.112;2023-02-28T08:46:25;7.50;;;3.87;;
3999;SDS011;2014;53.604;10.112;2023-02-28T08:49:01;5.83;;;4.50;;
3999;SDS011;2014;53.604;10.112;2023-02-28T08:51:38;7.97;;;4.93;;
3999;SDS011;2014;53.604;10.112;2023-02-28T08:54:25;3.90;;;3.70;;
3999;SDS011;2014;53.604;10.112;2023-02-28T08:57:01;3.67;;;3.33;;
3999;SDS011;2014;53.604;10.112;2023-02-28T08:59:43;3.57;;;3.20;;
3999;SDS011;2014;53.604;10.112;2023-02-28T09:02:20;7.33;;;3.90;;
3999;SDS011;2014;53.604;10.112;2023-02-28T09:04:57;8.20;;;4.23;;
3999;SDS011;2014;53.604;10.112;2023-02-28T09:07:48;4.90;;;4.50;;
3999;SDS011;2014;53.604;10.112;2023-02-28T09:10:23;4.73;;;4.33;;
3999;SDS011;2014;53.604;10.112;2023-02-28T09:12:59;3.63;;;3.43;;
3999;SDS011;2014;53.604;10.112;2023-02-28T09:15:34;3.80;;;3.60;;
3999;SDS011;2014;53.604;10.112;2023-02-28T09:18:14;4.27;;;3.30;;
3999;SDS011;2014;53.604;10.112;2023-02-28T09:20:46;6.03;;;3.07;;
3999;SDS011;2014;53.604;10.112;2023-02-28T09:23:19;3.00;;;2.80;;
3999;SDS011;2014;53.604;10.112;2023-02-28T09:25:51;3.60;;;2.87;;
3999;SDS011;2014;53.604;10.112;2023-02-28T09:28:22;3.20;;;2.93;;
3999;SDS011;2014;53.604;10.112;2023-02-28T09:30:54;2.83;;;2.63;;
3999;SDS011;2014;53.604;10.112;2023-02-28T09:33:44;3.30;;;3.00;;
3999;SDS011;2014;53.604;10.112;2023-02-28T09:36:26;2.97;;;2.77;;
3999;SDS011;2014;53.604;10.112;2023-02-28T09:39:03;10.80;;;2.80;;
3999;SDS011;2014;53.604;10.112;2023-02-28T09:41:38;2.23;;;2.00;;
3999;SDS011;2014;53.604;10.112;2023-02-28T09:44:22;3.43;;;2.00;;
3999;SDS011;2014;53.604;10.112;2023-02-28T09:47:00;3.63;;;3.03;;
3999;SDS011;2014;53.604;10.112;2023-02-28T09:49:45;4.73;;;2.10;;
3999;SDS011;2014;53.604;10.112;2023-02-28T09:52:21;6.30;;;2.90;;
3999;SDS011;2014;53.604;10.112;2023-02-28T09:55:01;3.00;;;2.80;;
3999;SDS011;2014;53.604;10.112;2023-02-28T09:57:46;3.20;;;2.90;;
3999;SDS011;2014;53.604;10.112;2023-02-28T10:00:28;4.23;;;2.10;;
3999;SDS011;2014;53.604;10.112;2023-02-28T10:03:17;4.93;;;2.63;;
3999;SDS011;2014;53.604;10.112;2023-02-28T10:05:58;3.10;;;2.77;;
3999;SDS011;2014;53.604;10.112;2023-02-28T10:08:38;4.00;;;2.53;;
3999;SDS011;2014;53.604;10.112;2023-02-28T10:11:14;11.27;;;3.30;;
3999;SDS011;2014;53.604;10.112;2023-02-28T10:13:51;2.97;;;2.77;;
3999;SDS011;2014;53.604;10.112;2023-02-28T10:16:29;5.57;;;3.03;;
3999;SDS011;2014;53.604;10.112;2023-02-28T10:19:06;3.10;;;2.83;;
3999;SDS011;2014;53.604;10.112;2023-02-28T10:21:56;2.07;;;1.97;;
3999;SDS011;2014;53.604;10.112;2023-02-28T10:24:35;3.70;;;2.40;;
3999;SDS011;2014;53.604;10.112;2023-02-28T10:27:13;6.10;;;2.70;;
3999;SDS011;2014;53.604;10.112;2023-02-28T10:29:55;6.37;;;2.67;;
3999;SDS011;2014;53.604;10.112;2023-02-28T10:32:36;2.23;;;2.03;;
3999;SDS011;2014;53.604;10.112;2023-02-28T10:35:19;2.43;;;2.33;;
3999;SDS011;2014;53.604;10.112;2023-02-28T10:38:00;2.70;;;2.07;;
3999;SDS011;2014;53.604;10.112;2023-02-28T10:40:41;5.50;;;2.00;;
3999;SDS011;2014;53.604;10.112;2023-02-28T10:43:19;2.67;;;2.47;;
3999;SDS011;2014;53.604;10.112;2023-02-28T10:45:57;4.00;;;1.80;;
3999;SDS011;2014;53.604;10.112;2023-02-28T10:48:36;2.50;;;2.30;;
3999;SDS011;2014;53.604;10.112;2023-02-28T10:51:12;1.87;;;1.77;;
3999;SDS011;2014;53.604;10.112;2023-02-28T10:53:54;2.20;;;1.70;;
3999;SDS011;2014;53.604;10.112;2023-02-28T10:56:44;2.67;;;2.20;;
3999;SDS011;2014;53.604;10.112;2023-02-28T10:59:25;2.33;;;2.13;;
3999;SDS011;2014;53.604;10.112;2023-02-28T11:01:56;3.20;;;2.23;;
3999;SDS011;2014;53.604;10.112;2023-02-28T11:04:33;3.00;;;2.00;;
3999;SDS011;2014;53.604;10.112;2023-02-28T11:07:06;3.00;;;2.00;;
3999;SDS011;2014;53.604;10.112;2023-02-28T11:09:36;3.27;;;2.10;;
3999;SDS011;2014;53.604;10.112;2023-02-28T11:12:07;3.60;;;1.97;;
3999;SDS011;2014;53.604;10.112;2023-02-28T11:14:39;3.30;;;2.50;;
3999;SDS011;2014;53.604;10.112;2023-02-28T11:17:13;2.20;;;2.10;;
3999;SDS011;2014;53.604;10.112;2023-02-28T11:19:44;2.53;;;1.90;;
3999;SDS011;2014;53.604;10.112;2023-02-28T11:22:16;2.30;;;2.20;;
3999;SDS011;2014;53.604;10.112;2023-02-28T11:24:48;2.20;;;2.03;;
3999;SDS011;2014;53.604;10.112;2023-02-28T11:30:04;8.03;;;2.53;;
3999;SDS011;2014;53.604;10.112;2023-02-28T11:32:34;6.60;;;2.17;;
3999;SDS011;2014;53.604;10.112;2023-02-28T11:35:10;2.90;;;1.73;;
3999;SDS011;2014;53.604;10.112;2023-02-28T11:37:42;2.10;;;1.90;;
3999;SDS011;2014;53.604;10.112;2023-02-28T11:40:14;2.33;;;2.23;;
3999;SDS011;2014;53.604;10.112;2023-02-28T11:42:52;1.90;;;1.80;;
3999;SDS011;2014;53.604;10.112;2023-02-28T11:45:31;3.00;;;2.10;;
3999;SDS011;2014;53.604;10.112;2023-02-28T11:48:09;4.10;;;1.67;;
3999;SDS011;2014;53.604;10.112;2023-02-28T11:50:44;2.30;;;2.10;;
3999;SDS011;2014;53.604;10.112;2023-02-28T11:53:19;2.00;;;1.90;;
3999;SDS011;2014;53.604;10.112;2023-02-28T11:55:52;3.70;;;1.90;;
3999;SDS011;2014;53.604;10.112;2023-02-28T11:58:26;25.20;;;2.67;;
3999;SDS011;2014;53.604;10.112;2023-02-28T12:01:03;3.47;;;2.03;;
3999;SDS011;2014;53.604;10.112;2023-02-28T12:03:38;2.73;;;1.80;;
3999;SDS011;2014;53.604;10.112;2023-02-28T12:06:17;2.00;;;1.90;;
3999;SDS011;2014;53.604;10.112;2023-02-28T12:08:49;2.93;;;2.27;;
3999;SDS011;2014;53.604;10.112;2023-02-28T12:11:25;3.00;;;2.23;;
3999;SDS011;2014;53.604;10.112;2023-02-28T12:14:00;3.60;;;2.10;;
3999;SDS011;2014;53.604;10.112;2023-02-28T12:16:45;1.90;;;1.80;;
3999;SDS011;2014;53.604;10.112;2023-02-28T12:19:18;2.70;;;1.70;;
3999;SDS011;2014;53.604;10.112;2023-02-28T12:21:59;4.07;;;1.90;;
3999;SDS011;2014;53.604;10.112;2023-02-28T12:24:45;3.73;;;2.17;;
3999;SDS011;2014;53.604;10.112;2023-02-28T12:27:19;2.43;;;1.87;;
3999;SDS011;2014;53.604;10.112;2023-02-28T12:29:51;1.87;;;1.77;;
3999;SDS011;2014;53.604;10.112;2023-02-28T12:32:26;3.53;;;1.70;;
3999;SDS011;2014;53.604;10.112;2023-02-28T12:35:00;2.57;;;1.70;;
3999;SDS011;2014;53.604;10.112;2023-02-28T12:37:32;1.77;;;1.70;;
3999;SDS011;2014;53.604;10.112;2023-02-28T12:40:05;1.60;;;1.50;;
3999;SDS011;2014;53.604;10.112;2023-02-28T12:45:12;1.67;;;1.57;;
3999;SDS011;2014;53.604;10.112;2023-02-28T12:47:46;1.80;;;1.73;;
3999;SDS011;2014;53.604;10.112;2023-02-28T12:50:16;10.13;;;2.10;;
3999;SDS011;2014;53.604;10.112;2023-02-28T12:52:48;1.30;;;1.20;;
3999;SDS011;2014;53.604;10.112;2023-02-28T12:55:21;3.20;;;2.40;;
3999;SDS011;2014;53.604;10.112;2023-02-28T12:57:55;2.50;;;1.80;;
3999;SDS011;2014;53.604;10.112;2023-02-28T13:00:31;1.53;;;1.47;;
3999;SDS011;2014;53.604;10.112;2023-02-28T13:06:11;2.07;;;1.97;;
3999;SDS011;2014;53.604;10.112;2023-02-28T13:08:52;3.67;;;1.43;;
3999;SDS011;2014;53.604;10.112;2023-02-28T13:11:27;1.37;;;1.27;;
3999;SDS011;2014;53.604;10.112;2023-02-28T13:13:58;2.33;;;1.97;;
3999;SDS011;2014;53.604;10.112;2023-02-28T13:16:28;3.20;;;1.63;;
3999;SDS011;2014;53.604;10.112;2023-02-28T13:19:16;2.40;;;1.30;;
3999;SDS011;2014;53.604;10.112;2023-02-28T13:21:44;1.77;;;1.60;;
3999;SDS011;2014;53.604;10.112;2023-02-28T13:24:27;2.00;;;1.50;;
3999;SDS011;2014;53.604;10.112;2023-02-28T13:29:59;7.90;;;2.47;;
3999;SDS011;2014;53.604;10.112;2023-02-28T13:32:31;1.43;;;1.33;;
3999;SDS011;2014;53.604;10.112;2023-02-28T13:37:48;3.37;;;3.07;;
3999;SDS011;2014;53.604;10.112;2023-02-28T13:40:28;3.13;;;1.47;;
3999;SDS011;2014;53.604;10.112;2023-02-28T13:43:02;2.17;;;1.27;;
3999;SDS011;2014;53.604;10.112;2023-02-28T13:45:30;1.40;;;1.30;;
3999;SDS011;2014;53.604;10.112;2023-02-28T13:48:14;4.93;;;1.73;;
3999;SDS011;2014;53.604;10.112;2023-02-28T13:50:44;4.73;;;1.70;;
3999;SDS011;2014;53.604;10.112;2023-02-28T13:56:03;1.20;;;1.20;;
3999;SDS011;2014;53.604;10.112;2023-02-28T13:58:41;1.87;;;1.77;;
3999;SDS011;2014;53.604;10.112;2023-02-28T14:01:14;1.20;;;1.10;;
3999;SDS011;2014;53.604;10.112;2023-02-28T14:03:53;1.37;;;1.20;;
3999;SDS011;2014;53.604;10.112;2023-02-28T14:06:26;2.20;;;1.50;;
3999;SDS011;2014;53.604;10.112;2023-02-28T14:08:57;1.43;;;1.33;;
3999;SDS011;2014;53.604;10.112;2023-02-28T14:11:30;2.10;;;2.00;;
3999;SDS011;2014;53.604;10.112;2023-02-28T14:13:58;2.50;;;1.60;;
3999;SDS011;2014;53.604;10.112;2023-02-28T14:16:28;5.17;;;1.30;;
3999;SDS011;2014;53.604;10.112;2023-02-28T14:19:04;0.93;;;0.93;;
3999;SDS011;2014;53.604;10.112;2023-02-28T14:21:37;1.80;;;1.57;;
3999;SDS011;2014;53.604;10.112;2023-02-28T14:27:07;0.90;;;0.90;;
3999;SDS011;2014;53.604;10.112;2023-02-28T14:29:42;1.20;;;1.10;;
3999;SDS011;2014;53.604;10.112;2023-02-28T14:32:13;0.80;;;0.70;;
3999;SDS011;2014;53.604;10.112;2023-02-28T14:34:47;1.70;;;1.33;;
3999;SDS011;2014;53.604;10.112;2023-02-28T14:37:19;2.53;;;1.30;;
3999;SDS011;2014;53.604;10.112;2023-02-28T14:39:51;1.33;;;1.33;;
3999;SDS011;2014;53.604;10.112;2023-02-28T14:42:27;1.80;;;1.47;;
3999;SDS011;2014;53.604;10.112;2023-02-28T14:44:56;1.63;;;1.30;;
3999;SDS011;2014;53.604;10.112;2023-02-28T14:47:26;3.20;;;1.90;;
3999;SDS011;2014;53.604;10.112;2023-02-28T14:49:58;4.00;;;1.37;;
3999;SDS011;2014;53.604;10.112;2023-02-28T14:52:27;1.63;;;1.63;;
3999;SDS011;2014;53.604;10.112;2023-02-28T14:54:58;1.50;;;1.50;;
3999;SDS011;2014;53.604;10.112;2023-02-28T14:57:28;4.23;;;1.70;;
3999;SDS011;2014;53.604;10.112;2023-02-28T14:59:59;1.07;;;1.03;;
3999;SDS011;2014;53.604;10.112;2023-02-28T15:02:30;1.40;;;1.40;;
3999;SDS011;2014;53.604;10.112;2023-02-28T15:05:01;1.20;;;1.10;;
3999;SDS011;2014;53.604;10.112;2023-02-28T15:07:34;2.77;;;1.70;;
3999;SDS011;2014;53.604;10.112;2023-02-28T15:10:15;10.33;;;1.27;;
3999;SDS011;2014;53.604;10.112;2023-02-28T15:12:46;1.50;;;1.40;;
3999;SDS011;2014;53.604;10.112;2023-02-28T15:15:16;0.90;;;0.90;;
3999;SDS011;2014;53.604;10.112;2023-02-28T15:17:46;2.30;;;2.17;;
3999;SDS011;2014;53.604;10.112;2023-02-28T15:20:19;1.57;;;1.40;;
3999;SDS011;2014;53.604;10.112;2023-02-28T15:22:50;1.40;;;1.30;;
3999;SDS011;2014;53.604;10.112;2023-02-28T15:25:21;2.43;;;1.50;;
3999;SDS011;2014;53.604;10.112;2023-02-28T15:27:51;1.57;;;1.47;;
3999;SDS011;2014;53.604;10.112;2023-02-28T15:30:21;1.60;;;1.50;;
3999;SDS011;2014;53.604;10.112;2023-02-28T15:33:04;2.13;;;1.30;;
3999;SDS011;2014;53.604;10.112;2023-02-28T15:35:36;1.47;;;0.93;;
3999;SDS011;2014;53.604;10.112;2023-02-28T15:38:12;4.40;;;1.67;;
3999;SDS011;2014;53.604;10.112;2023-02-28T15:40:43;1.10;;;1.10;;
3999;SDS011;2014;53.604;10.112;2023-02-28T15:43:23;1.90;;;1.30;;
3999;SDS011;2014;53.604;10.112;2023-02-28T15:45:55;2.17;;;2.03;;
3999;SDS011;2014;53.604;10.112;2023-02-28T15:48:27;1.10;;;0.80;;
3999;SDS011;2014;53.604;10.112;2023-02-28T15:51:01;16.23;;;1.37;;
3999;SDS011;2014;53.604;10.112;2023-02-28T15:53:30;1.50;;;1.40;;
3999;SDS011;2014;53.604;10.112;2023-02-28T15:56:00;2.07;;;1.23;;
3999;SDS011;2014;53.604;10.112;2023-02-28T15:58:28;1.10;;;0.90;;
3999;SDS011;2014;53.604;10.112;2023-02-28T16:01:00;1.50;;;1.30;;
3999;SDS011;2014;53.604;10.112;2023-02-28T16:03:34;1.13;;;1.13;;
3999;SDS011;2014;53.604;10.112;2023-02-28T16:09:12;1.50;;;1.40;;
3999;SDS011;2014;53.604;10.112;2023-02-28T16:11:45;2.93;;;1.30;;
3999;SDS011;2014;53.604;10.112;2023-02-28T16:14:15;2.13;;;1.50;;
3999;SDS011;2014;53.604;10.112;2023-02-28T16:16:45;1.10;;;1.00;;
3999;SDS011;2014;53.604;10.112;2023-02-28T16:19:14;0.97;;;0.90;;
3999;SDS011;2014;53.604;10.112;2023-02-28T16:21:42;1.10;;;1.10;;
3999;SDS011;2014;53.604;10.112;2023-02-28T16:24:12;1.63;;;0.90;;
3999;SDS011;2014;53.604;10.112;2023-02-28T16:26:45;1.47;;;1.37;;
3999;SDS011;2014;53.604;10.112;2023-02-28T16:29:16;1.50;;;1.40;;
3999;SDS011;2014;53.604;10.112;2023-02-28T16:31:47;2.50;;;1.30;;
3999;SDS011;2014;53.604;10.112;2023-02-28T16:34:16;1.97;;;1.87;;